Aviation Digital Data Service (ADDS)

Output produced by METARs form (2134 UTC 24 February 2018)
found at http://aviationweather.gov/adds/metars/
 
KDFW 242056Z 2421/2524 30012KT P6SM SCT040 
     FM250600 35007KT 4SM BR FEW250 
     FM251600 12006KT 6SM BR FEW250